createdAt,value
2019-04-13T00:01:11.013Z,19.70
2019-04-13T00:03:37.326Z,16.33
2019-04-13T00:06:08.098Z,16.67
2019-04-13T00:08:36.332Z,15.00
2019-04-13T00:11:04.592Z,14.50
2019-04-13T00:13:30.798Z,15.47
2019-04-13T00:15:57.250Z,13.87
2019-04-13T00:18:23.494Z,13.23
2019-04-13T00:20:49.651Z,12.63
2019-04-13T00:23:15.979Z,12.60
2019-04-13T00:25:42.140Z,12.47
2019-04-13T00:28:08.364Z,14.30
2019-04-13T00:30:34.500Z,14.50
2019-04-13T00:33:00.842Z,12.87
2019-04-13T00:35:27.051Z,16.03
2019-04-13T00:37:53.176Z,15.27
2019-04-13T00:40:19.355Z,16.57
2019-04-13T00:42:45.505Z,16.27
2019-04-13T00:45:12.170Z,15.03
2019-04-13T00:47:38.365Z,14.00
2019-04-13T00:50:05.363Z,13.83
2019-04-13T00:52:31.617Z,12.63
2019-04-13T00:54:57.796Z,13.97
2019-04-13T00:57:24.039Z,13.00
2019-04-13T00:59:50.188Z,15.40
2019-04-13T01:02:16.331Z,15.37
2019-04-13T01:04:53.049Z,22.00
2019-04-13T01:07:10.733Z,20.30
2019-04-13T01:09:37.078Z,18.47
2019-04-13T01:12:03.442Z,19.97
2019-04-13T01:14:29.670Z,18.57
2019-04-13T01:16:56.008Z,20.33
2019-04-13T01:19:22.354Z,18.13
2019-04-13T01:21:48.559Z,16.83
2019-04-13T01:24:14.772Z,17.03
2019-04-13T01:26:40.898Z,16.43
2019-04-13T01:29:07.041Z,16.47
2019-04-13T01:31:33.193Z,17.20
2019-04-13T01:33:59.445Z,19.17
2019-04-13T01:36:25.662Z,17.97
2019-04-13T01:38:52.052Z,16.57
2019-04-13T01:41:18.257Z,18.07
2019-04-13T01:43:44.449Z,20.07
2019-04-13T01:46:10.645Z,18.33
2019-04-13T01:48:36.870Z,17.17
2019-04-13T01:51:03.195Z,20.30
2019-04-13T01:53:29.458Z,19.07
2019-04-13T01:55:55.695Z,18.87
2019-04-13T01:58:21.853Z,17.20
2019-04-13T02:00:52.785Z,16.53
2019-04-13T02:03:19.156Z,16.33
2019-04-13T02:06:04.050Z,15.90
2019-04-13T02:08:49.123Z,16.80
2019-04-13T02:11:26.247Z,17.60
2019-04-13T02:13:52.395Z,16.33
2019-04-13T02:16:18.517Z,18.60
2019-04-13T02:18:44.721Z,18.17
2019-04-13T02:21:10.975Z,16.60
2019-04-13T02:23:37.135Z,17.03
2019-04-13T02:26:03.355Z,17.77
2019-04-13T02:28:29.590Z,20.07
2019-04-13T02:30:55.940Z,19.23
2019-04-13T02:33:22.200Z,17.63
2019-04-13T02:35:48.388Z,17.53
2019-04-13T02:38:14.547Z,18.37
2019-04-13T02:40:40.797Z,17.40
2019-04-13T02:43:07.032Z,19.93
2019-04-13T02:45:33.287Z,17.60
2019-04-13T02:47:59.629Z,18.93
2019-04-13T02:50:25.752Z,18.97
2019-04-13T02:52:52.020Z,20.17
2019-04-13T02:55:18.285Z,17.67
2019-04-13T02:57:44.538Z,17.70
2019-04-13T03:00:11.984Z,17.47
2019-04-13T03:02:38.502Z,16.47
2019-04-13T03:05:05.345Z,17.57
2019-04-13T03:07:31.798Z,17.93
2019-04-13T03:09:58.122Z,18.13
2019-04-13T03:12:24.438Z,19.17
2019-04-13T03:14:50.790Z,18.50
2019-04-13T03:17:25.196Z,15.90
2019-04-13T03:19:59.276Z,14.77
2019-04-13T03:22:25.500Z,15.57
2019-04-13T03:24:51.749Z,15.90
2019-04-13T03:27:18.013Z,15.00
2019-04-13T03:29:44.241Z,16.70
2019-04-13T03:32:10.484Z,18.80
2019-04-13T03:34:36.704Z,16.67
2019-04-13T03:37:02.975Z,16.23
2019-04-13T03:39:29.378Z,16.00
2019-04-13T03:41:55.610Z,17.60
2019-04-13T03:44:21.844Z,17.07
2019-04-13T03:46:48.022Z,15.50
2019-04-13T03:49:14.133Z,17.10
2019-04-13T03:51:40.268Z,16.40
2019-04-13T03:54:06.521Z,14.60
2019-04-13T03:56:32.780Z,15.90
2019-04-13T03:58:59.137Z,15.47
2019-04-13T04:01:25.247Z,19.30
2019-04-13T04:03:51.406Z,16.77
2019-04-13T04:06:17.628Z,17.23
2019-04-13T04:08:43.780Z,17.70
2019-04-13T04:11:10.016Z,17.20
2019-04-13T04:13:36.167Z,16.63
2019-04-13T04:16:02.379Z,15.97
2019-04-13T04:18:28.944Z,19.47
2019-04-13T04:20:55.187Z,17.97
2019-04-13T04:23:21.516Z,17.43
2019-04-13T04:25:47.654Z,17.27
2019-04-13T04:28:13.766Z,15.57
2019-04-13T04:30:40.082Z,14.53
2019-04-13T04:33:06.228Z,16.27
2019-04-13T04:35:32.444Z,16.77
2019-04-13T04:37:58.686Z,21.73
2019-04-13T04:40:24.929Z,18.80
2019-04-13T04:42:51.209Z,20.67
2019-04-13T04:45:17.394Z,19.37
2019-04-13T04:47:43.786Z,20.17
2019-04-13T04:50:10.035Z,19.93
2019-04-13T04:52:36.199Z,19.67
2019-04-13T04:55:03.904Z,18.30
2019-04-13T04:57:30.133Z,18.40
2019-04-13T04:59:56.403Z,19.27
2019-04-13T05:02:22.604Z,17.90
2019-04-13T05:04:48.833Z,18.67
2019-04-13T05:07:15.038Z,22.17
2019-04-13T05:09:41.203Z,19.63
2019-04-13T05:12:07.336Z,20.73
2019-04-13T05:14:33.559Z,18.67
2019-04-13T05:16:59.702Z,19.57
2019-04-13T05:19:25.965Z,23.07
2019-04-13T05:21:52.177Z,21.70
2019-04-13T05:24:18.402Z,21.40
2019-04-13T05:26:44.556Z,21.67
2019-04-13T05:29:10.869Z,21.60
2019-04-13T05:31:37.007Z,25.73
2019-04-13T05:34:03.140Z,22.03
2019-04-13T05:36:29.413Z,24.30
2019-04-13T05:38:55.871Z,22.33
2019-04-13T05:41:22.079Z,24.60
2019-04-13T05:43:48.271Z,24.73
2019-04-13T05:46:14.575Z,24.60
2019-04-13T05:48:40.790Z,23.23
2019-04-13T05:51:07.415Z,24.50
2019-04-13T05:53:33.592Z,25.57
2019-04-13T05:55:59.719Z,24.33
2019-04-13T05:58:25.930Z,26.30
2019-04-13T06:00:52.487Z,24.87
2019-04-13T06:03:18.618Z,23.80
2019-04-13T06:05:44.868Z,24.23
2019-04-13T06:08:11.094Z,23.57
2019-04-13T06:10:37.241Z,24.80
2019-04-13T06:13:03.578Z,25.33
2019-04-13T06:15:31.127Z,25.87
2019-04-13T06:17:57.786Z,24.07
2019-04-13T06:20:23.919Z,23.87
2019-04-13T06:22:52.199Z,25.60
2019-04-13T06:25:18.205Z,28.67
2019-04-13T06:27:44.454Z,27.13
2019-04-13T06:30:31.015Z,27.13
2019-04-13T06:32:59.117Z,29.17
2019-04-13T06:35:27.303Z,27.27
2019-04-13T06:37:55.357Z,26.23
2019-04-13T06:40:21.692Z,28.87
2019-04-13T06:42:50.256Z,29.23
2019-04-13T06:45:16.405Z,50.37
2019-04-13T06:47:42.675Z,64.97
2019-04-13T06:50:08.985Z,44.43
2019-04-13T06:52:36.036Z,32.83
2019-04-13T06:55:05.480Z,29.17
2019-04-13T06:57:31.770Z,29.93
2019-04-13T06:59:58.237Z,27.83
2019-04-13T07:02:24.596Z,29.97
2019-04-13T07:04:50.751Z,28.13
2019-04-13T07:07:30.939Z,29.93
2019-04-13T07:10:15.439Z,27.43
2019-04-13T07:12:52.495Z,27.50
2019-04-13T07:15:18.830Z,27.90
2019-04-13T07:17:44.960Z,27.60
2019-04-13T07:20:14.275Z,27.20
2019-04-13T07:22:39.338Z,27.90
2019-04-13T07:25:05.688Z,28.57
2019-04-13T07:27:31.969Z,29.50
2019-04-13T07:29:58.162Z,29.47
2019-04-13T07:32:24.396Z,30.63
2019-04-13T07:34:50.643Z,29.67
2019-04-13T07:37:16.982Z,29.37
2019-04-13T07:39:43.119Z,29.17
2019-04-13T07:42:09.234Z,28.37
2019-04-13T07:44:40.314Z,29.67
2019-04-13T07:47:26.688Z,27.43
2019-04-13T07:50:01.100Z,31.57
2019-04-13T07:52:29.851Z,29.30
2019-04-13T07:54:56.060Z,28.80
2019-04-13T07:57:22.319Z,30.23
2019-04-13T07:59:50.689Z,25.87
2019-04-13T08:02:16.781Z,30.77
2019-04-13T08:04:43.071Z,31.07
2019-04-13T08:07:09.294Z,30.30
2019-04-13T08:09:35.543Z,28.70
2019-04-13T08:12:01.702Z,28.50
2019-04-13T08:14:29.307Z,31.97
2019-04-13T08:16:55.730Z,31.77
2019-04-13T08:19:26.771Z,31.10
2019-04-13T08:21:52.894Z,31.00
2019-04-13T08:24:19.019Z,31.67
2019-04-13T08:26:46.431Z,30.67
2019-04-13T08:29:13.364Z,31.40
2019-04-13T08:31:40.680Z,31.17
2019-04-13T08:34:06.967Z,31.23
2019-04-13T08:36:33.258Z,27.67
2019-04-13T08:38:59.629Z,27.93
2019-04-13T08:41:25.830Z,31.00
2019-04-13T08:43:52.084Z,30.30
2019-04-13T08:46:18.302Z,30.60
2019-04-13T08:48:44.439Z,30.40
2019-04-13T08:51:10.788Z,29.33
2019-04-13T08:53:38.758Z,31.63
2019-04-13T08:56:04.892Z,31.50
2019-04-13T08:58:32.369Z,30.13
2019-04-13T09:00:58.595Z,31.37
2019-04-13T09:03:24.821Z,29.63
2019-04-13T09:05:50.975Z,28.33
2019-04-13T09:08:28.918Z,28.07
2019-04-13T09:10:45.181Z,28.80
2019-04-13T09:13:11.563Z,27.10
2019-04-13T09:15:43.389Z,30.48
2019-04-13T09:18:10.514Z,26.02
2019-04-13T09:20:50.286Z,27.25
2019-04-13T09:23:16.505Z,26.57
2019-04-13T09:25:42.780Z,26.50
2019-04-13T09:28:11.555Z,27.15
2019-04-13T09:30:38.843Z,25.90
2019-04-13T09:33:05.050Z,27.93
2019-04-13T09:35:31.194Z,27.73
2019-04-13T09:37:57.352Z,27.87
2019-04-13T09:40:23.694Z,27.27
2019-04-13T09:42:50.001Z,29.18
2019-04-13T09:45:17.249Z,28.27
2019-04-13T09:47:43.475Z,28.12
2019-04-13T09:50:09.744Z,27.48
2019-04-13T09:52:35.982Z,28.60
2019-04-13T09:55:02.361Z,28.17
2019-04-13T09:57:29.260Z,26.77
2019-04-13T09:59:57.310Z,26.25
2019-04-13T10:02:26.097Z,30.27
2019-04-13T10:04:51.821Z,29.18
2019-04-13T10:07:18.055Z,26.42
2019-04-13T10:09:44.256Z,28.30
2019-04-13T10:12:28.833Z,29.30
2019-04-13T10:14:59.945Z,27.42
2019-04-13T10:17:30.731Z,23.87
2019-04-13T10:19:56.946Z,27.52
2019-04-13T10:22:24.603Z,30.95
2019-04-13T10:24:50.883Z,31.02
2019-04-13T10:27:19.412Z,32.98
2019-04-13T10:29:47.165Z,32.88
2019-04-13T10:32:13.297Z,31.75
2019-04-13T10:34:39.636Z,29.95
2019-04-13T10:37:05.884Z,32.83
2019-04-13T10:39:32.163Z,29.82
2019-04-13T10:41:58.794Z,30.88
2019-04-13T10:44:26.938Z,29.40
2019-04-13T10:47:02.619Z,31.90
2019-04-13T10:49:45.666Z,34.50
2019-04-13T10:52:20.950Z,32.98
2019-04-13T10:54:47.723Z,30.02
2019-04-13T10:57:13.930Z,32.60
2019-04-13T10:59:40.220Z,30.10
2019-04-13T11:02:06.354Z,29.47
2019-04-13T11:04:32.610Z,33.92
2019-04-13T11:06:58.828Z,32.05
2019-04-13T11:09:28.526Z,33.57
2019-04-13T11:11:53.236Z,30.70
2019-04-13T11:14:19.460Z,33.05
2019-04-13T11:16:45.715Z,34.90
2019-04-13T11:19:11.971Z,34.98
2019-04-13T11:21:38.298Z,33.27
2019-04-13T11:24:04.515Z,34.23
2019-04-13T11:26:30.870Z,37.03
2019-04-13T11:28:57.149Z,36.23
2019-04-13T11:31:23.705Z,35.77
2019-04-13T11:33:50.053Z,34.55
2019-04-13T11:36:16.480Z,34.03
2019-04-13T11:38:42.735Z,35.53
2019-04-13T11:41:14.039Z,36.60
2019-04-13T11:43:54.039Z,34.53
2019-04-13T11:46:34.378Z,37.98
2019-04-13T11:49:02.433Z,34.88
2019-04-13T11:51:32.172Z,33.70
2019-04-13T11:53:58.400Z,34.17
2019-04-13T11:56:24.729Z,34.63
2019-04-13T11:58:51.130Z,37.30
2019-04-13T12:01:19.221Z,39.60
2019-04-13T12:03:47.339Z,37.87
2019-04-13T12:06:18.368Z,39.30
2019-04-13T12:08:59.288Z,39.67
2019-04-13T12:11:42.062Z,39.70
2019-04-13T12:14:26.872Z,41.53
2019-04-13T12:17:03.822Z,38.47
2019-04-13T12:19:31.942Z,41.87
2019-04-13T12:22:02.789Z,40.37
2019-04-13T12:24:29.008Z,38.40
2019-04-13T12:26:55.273Z,38.83
2019-04-13T12:29:21.508Z,38.43
2019-04-13T12:31:47.959Z,40.07
2019-04-13T12:34:14.165Z,43.97
2019-04-13T12:36:40.400Z,42.67
2019-04-13T12:39:07.733Z,43.13
2019-04-13T12:41:42.294Z,42.70
2019-04-13T12:44:08.763Z,44.17
2019-04-13T12:46:35.171Z,44.33
2019-04-13T12:49:01.310Z,43.87
2019-04-13T12:51:27.548Z,43.77
2019-04-13T12:53:53.702Z,40.60
2019-04-13T12:56:20.000Z,39.57
2019-04-13T12:58:46.353Z,44.67
2019-04-13T13:01:17.082Z,43.00
2019-04-13T13:03:43.207Z,41.47
2019-04-13T13:06:09.553Z,42.20
2019-04-13T13:08:36.924Z,41.60
2019-04-13T13:11:03.946Z,42.07
2019-04-13T13:13:30.066Z,41.47
2019-04-13T13:15:56.331Z,41.23
2019-04-13T13:18:26.119Z,39.50
2019-04-13T13:20:50.718Z,39.83
2019-04-13T13:23:17.068Z,43.13
2019-04-13T13:25:43.207Z,40.80
2019-04-13T13:28:12.111Z,41.47
2019-04-13T13:30:37.592Z,42.57
2019-04-13T13:33:03.884Z,44.10
2019-04-13T13:35:32.863Z,43.83
2019-04-13T13:37:59.098Z,42.90
2019-04-13T13:40:30.984Z,44.27
2019-04-13T13:42:53.398Z,42.33
2019-04-13T13:45:25.058Z,44.33
2019-04-13T13:47:48.833Z,42.43
2019-04-13T13:50:15.266Z,41.90
2019-04-13T13:52:41.499Z,41.13
2019-04-13T13:55:11.394Z,36.83
2019-04-13T13:57:38.587Z,43.07
2019-04-13T14:00:07.254Z,40.50
2019-04-13T14:02:34.801Z,41.70
2019-04-13T14:05:01.398Z,41.47
2019-04-13T14:07:27.667Z,40.13
2019-04-13T14:10:10.300Z,39.40
2019-04-13T14:12:36.545Z,38.90
2019-04-13T14:15:07.464Z,39.23
2019-04-13T14:17:33.053Z,41.87
2019-04-13T14:20:01.399Z,44.03
2019-04-13T14:22:27.388Z,41.80
2019-04-13T14:24:53.662Z,42.47
2019-04-13T14:27:19.923Z,39.37
2019-04-13T14:29:46.155Z,40.33
2019-04-13T14:32:12.343Z,43.33
2019-04-13T14:34:38.561Z,43.03
2019-04-13T14:37:04.799Z,42.60
2019-04-13T14:39:34.536Z,42.63
2019-04-13T14:41:59.265Z,41.60
2019-04-13T14:44:25.406Z,42.17
2019-04-13T14:46:51.583Z,42.87
2019-04-13T14:49:17.818Z,41.80
2019-04-13T14:51:43.961Z,38.33
2019-04-13T14:54:10.250Z,40.57
2019-04-13T14:56:36.385Z,39.60
2019-04-13T14:59:02.896Z,43.37
2019-04-13T15:01:29.047Z,41.47
2019-04-13T15:03:55.267Z,41.00
2019-04-13T15:06:24.866Z,41.07
2019-04-13T15:08:49.661Z,43.87
2019-04-13T15:11:17.409Z,42.83
2019-04-13T15:13:44.978Z,43.77
2019-04-13T15:16:16.383Z,44.63
2019-04-13T15:18:46.081Z,44.97
2019-04-13T15:21:13.225Z,39.90
2019-04-13T15:23:42.464Z,41.70
2019-04-13T15:26:08.151Z,43.37
2019-04-13T15:28:37.912Z,45.73
2019-04-13T15:31:06.110Z,42.47
2019-04-13T15:33:32.775Z,44.90
2019-04-13T15:36:02.798Z,44.60
2019-04-13T15:38:28.416Z,45.37
2019-04-13T15:40:58.654Z,52.63
2019-04-13T15:43:28.603Z,49.03
2019-04-13T15:45:52.545Z,52.77
2019-04-13T15:48:20.264Z,54.00
2019-04-13T15:50:46.765Z,48.73
2019-04-13T15:53:13.969Z,49.40
2019-04-13T15:55:40.179Z,49.83
2019-04-13T15:58:06.353Z,60.60
2019-04-13T16:00:33.803Z,49.27
2019-04-13T16:03:00.543Z,47.33
2019-04-13T16:05:28.747Z,44.70
2019-04-13T16:07:55.181Z,45.20
2019-04-13T16:10:24.716Z,43.20
2019-04-13T16:13:02.467Z,47.50
2019-04-13T16:15:36.427Z,44.20
2019-04-13T16:18:02.822Z,44.43
2019-04-13T16:20:29.477Z,46.17
2019-04-13T16:22:55.856Z,47.50
2019-04-13T16:25:22.775Z,47.23
2019-04-13T16:27:53.679Z,46.90
2019-04-13T16:30:39.068Z,49.33
2019-04-13T16:33:23.949Z,49.13
2019-04-13T16:35:52.088Z,47.70
2019-04-13T16:38:18.328Z,47.70
2019-04-13T16:40:45.680Z,49.57
2019-04-13T16:43:11.930Z,48.63
2019-04-13T16:45:44.286Z,49.13
2019-04-13T16:48:29.589Z,49.73
2019-04-13T16:50:57.792Z,49.47
2019-04-13T16:53:43.096Z,52.03
2019-04-13T16:56:12.221Z,50.27
2019-04-13T16:58:44.127Z,50.33
2019-04-13T17:01:12.516Z,52.67
2019-04-13T17:03:43.793Z,50.70
2019-04-13T17:06:11.289Z,49.63
2019-04-13T17:08:37.446Z,50.40
2019-04-13T17:11:04.868Z,49.43
2019-04-13T17:13:32.277Z,49.50
2019-04-13T17:15:58.869Z,47.87
2019-04-13T17:18:27.455Z,48.23
2019-04-13T17:20:59.835Z,49.60
2019-04-13T17:23:31.499Z,49.40
2019-04-13T17:26:00.078Z,48.73
2019-04-13T17:28:28.836Z,47.73
2019-04-13T17:31:14.187Z,48.83
2019-04-13T17:33:42.445Z,46.43
2019-04-13T17:36:08.672Z,45.80
2019-04-13T17:38:35.113Z,47.00
2019-04-13T17:41:03.631Z,45.93
2019-04-13T17:43:49.500Z,47.03
2019-04-13T17:46:20.600Z,46.80
2019-04-13T17:49:05.197Z,47.00
2019-04-13T17:51:36.052Z,43.70
2019-04-13T17:54:10.470Z,43.17
2019-04-13T17:56:36.677Z,43.43
2019-04-13T17:59:21.995Z,46.53
2019-04-13T18:01:53.118Z,46.50
2019-04-13T18:04:37.723Z,42.30
2019-04-13T18:07:12.159Z,49.93
2019-04-13T18:09:55.994Z,42.03
2019-04-13T18:12:37.502Z,45.43
2019-04-13T18:15:07.439Z,43.53
2019-04-13T18:17:45.235Z,41.23
2019-04-13T18:20:13.514Z,44.57
2019-04-13T18:22:41.387Z,44.90
2019-04-13T18:25:08.100Z,43.13
2019-04-13T18:27:34.935Z,43.73
2019-04-13T18:30:10.373Z,44.37
2019-04-13T18:32:30.135Z,39.40
2019-04-13T18:34:56.501Z,43.97
2019-04-13T18:37:22.753Z,44.57
2019-04-13T18:39:51.517Z,39.80
2019-04-13T18:42:17.612Z,41.30
2019-04-13T18:44:43.822Z,42.50
2019-04-13T18:47:11.304Z,44.43
2019-04-13T18:49:38.846Z,43.17
2019-04-13T18:52:05.215Z,43.77
2019-04-13T18:54:34.329Z,43.20
2019-04-13T18:57:00.621Z,40.77
2019-04-13T18:59:27.311Z,42.17
2019-04-13T19:01:53.837Z,41.83
2019-04-13T19:04:20.197Z,41.43
2019-04-13T19:06:46.459Z,41.77
2019-04-13T19:09:12.863Z,40.53
2019-04-13T19:11:39.192Z,37.23
2019-04-13T19:14:05.511Z,36.33
2019-04-13T19:16:31.660Z,35.50
2019-04-13T19:18:57.899Z,36.30
2019-04-13T19:21:24.266Z,39.20
2019-04-13T19:23:50.490Z,40.10
2019-04-13T19:26:16.648Z,36.47
2019-04-13T19:28:42.925Z,38.77
2019-04-13T19:31:09.266Z,40.20
2019-04-13T19:33:35.390Z,39.07
2019-04-13T19:36:01.611Z,39.50
2019-04-13T19:38:27.964Z,39.43
2019-04-13T19:40:54.211Z,41.10
2019-04-13T19:43:20.439Z,35.80
2019-04-13T19:45:46.833Z,35.80
2019-04-13T19:48:13.080Z,41.53
2019-04-13T19:50:39.323Z,40.90
2019-04-13T19:53:10.447Z,40.03
2019-04-13T19:55:36.707Z,38.87
2019-04-13T19:58:03.181Z,39.63
2019-04-13T20:00:31.442Z,41.03
2019-04-13T20:02:57.665Z,43.23
2019-04-13T20:05:23.914Z,40.87
2019-04-13T20:07:50.079Z,44.37
2019-04-13T20:10:16.374Z,48.37
2019-04-13T20:12:42.666Z,43.60
2019-04-13T20:15:09.751Z,42.40
2019-04-13T20:17:36.073Z,42.43
2019-04-13T20:20:05.235Z,44.83
2019-04-13T20:22:31.776Z,42.07
2019-04-13T20:24:58.525Z,42.20
2019-04-13T20:27:26.050Z,40.70
2019-04-13T20:29:53.298Z,44.07
2019-04-13T20:32:20.771Z,41.50
2019-04-13T20:34:47.171Z,41.87
2019-04-13T20:37:14.321Z,41.10
2019-04-13T20:39:43.880Z,41.60
2019-04-13T20:42:21.871Z,41.37
2019-04-13T20:44:45.368Z,44.90
2019-04-13T20:47:11.601Z,43.37
2019-04-13T20:49:37.791Z,41.30
2019-04-13T20:52:04.074Z,43.50
2019-04-13T20:54:30.288Z,41.90
2019-04-13T20:56:57.741Z,44.57
2019-04-13T20:59:24.179Z,45.17
2019-04-13T21:01:51.639Z,45.00
2019-04-13T21:04:17.974Z,44.70
2019-04-13T21:06:44.200Z,46.30
2019-04-13T21:09:11.727Z,48.90
2019-04-13T21:11:38.053Z,46.30
2019-04-13T21:14:13.819Z,42.03
2019-04-13T21:16:32.579Z,43.00
2019-04-13T21:18:58.826Z,41.63
2019-04-13T21:21:25.916Z,43.73
2019-04-13T21:23:52.192Z,41.77
2019-04-13T21:26:20.987Z,42.10
2019-04-13T21:28:47.229Z,45.37
2019-04-13T21:31:14.998Z,43.27
2019-04-13T21:33:41.153Z,39.00
2019-04-13T21:36:08.737Z,36.17
2019-04-13T21:38:35.242Z,37.07
2019-04-13T21:41:02.208Z,32.60
2019-04-13T21:43:32.314Z,38.97
2019-04-13T21:45:57.944Z,36.57
2019-04-13T21:48:24.239Z,37.27
2019-04-13T21:51:05.169Z,36.67
2019-04-13T21:53:52.785Z,38.60
2019-04-13T21:56:19.066Z,37.70
2019-04-13T21:58:45.224Z,35.13
2019-04-13T22:01:23.499Z,40.33
2019-04-13T22:03:49.781Z,40.30
2019-04-13T22:06:16.670Z,35.07
2019-04-13T22:08:42.976Z,39.23
2019-04-13T22:11:10.309Z,38.13
2019-04-13T22:13:36.664Z,42.87
2019-04-13T22:16:04.152Z,43.50
2019-04-13T22:18:30.374Z,42.17
2019-04-13T22:20:57.896Z,39.17
2019-04-13T22:23:25.722Z,37.33
2019-04-13T22:25:52.314Z,38.67
2019-04-13T22:28:21.536Z,39.33
2019-04-13T22:30:49.765Z,40.67
2019-04-13T22:33:17.518Z,39.27
2019-04-13T22:35:55.009Z,47.03
2019-04-13T22:38:21.900Z,48.60
2019-04-13T22:40:49.453Z,46.17
2019-04-13T22:43:15.962Z,46.80
2019-04-13T22:45:42.608Z,46.67
2019-04-13T22:48:27.405Z,43.57
2019-04-13T22:50:56.768Z,44.97
2019-04-13T22:53:28.421Z,47.47
2019-04-13T22:56:00.447Z,47.77
2019-04-13T22:58:26.940Z,49.40
2019-04-13T23:01:00.862Z,44.03
2019-04-13T23:03:27.241Z,45.93
2019-04-13T23:05:54.525Z,39.10
2019-04-13T23:08:20.939Z,49.00
2019-04-13T23:10:48.556Z,40.17
2019-04-13T23:13:15.148Z,39.53
2019-04-13T23:15:42.513Z,36.73
2019-04-13T23:18:10.245Z,43.17
2019-04-13T23:20:36.526Z,47.30
2019-04-13T23:23:02.906Z,45.00
2019-04-13T23:25:29.171Z,41.93
2019-04-13T23:27:55.366Z,44.17
2019-04-13T23:30:22.628Z,46.70
2019-04-13T23:32:53.120Z,49.67
2019-04-13T23:35:19.696Z,48.40
2019-04-13T23:37:46.060Z,46.87
2019-04-13T23:40:13.617Z,45.57
2019-04-13T23:42:40.074Z,42.67
2019-04-13T23:45:18.413Z,46.23
2019-04-13T23:47:36.209Z,51.43
2019-04-13T23:50:06.992Z,43.90
2019-04-13T23:52:33.269Z,42.67
2019-04-13T23:55:00.721Z,44.60
2019-04-13T23:57:46.383Z,39.93
